sensor_id;sensor_type;location;lat;lon;timestamp;temperature;humidity
774;DHT22;370;48.810;9.150;2022-10-16T00:02:12;16.80;31.10
774;DHT22;370;48.810;9.150;2022-10-16T00:04:39;16.90;30.80
774;DHT22;370;48.810;9.150;2022-10-16T00:07:06;16.80;30.50
774;DHT22;370;48.810;9.150;2022-10-16T00:09:33;16.80;31.20
774;DHT22;370;48.810;9.150;2022-10-16T00:11:59;16.80;31.40
774;DHT22;370;48.810;9.150;2022-10-16T00:14:26;16.80;31.30
774;DHT22;370;48.810;9.150;2022-10-16T00:16:53;16.80;32.00
774;DHT22;370;48.810;9.150;2022-10-16T00:19:21;16.70;32.50
774;DHT22;370;48.810;9.150;2022-10-16T00:21:48;16.70;33.10
774;DHT22;370;48.810;9.150;2022-10-16T00:24:14;16.60;33.50
774;DHT22;370;48.810;9.150;2022-10-16T00:26:41;16.50;34.30
774;DHT22;370;48.810;9.150;2022-10-16T00:29:09;16.30;36.40
774;DHT22;370;48.810;9.150;2022-10-16T00:31:36;16.20;38.00
774;DHT22;370;48.810;9.150;2022-10-16T00:34:03;16.20;38.40
774;DHT22;370;48.810;9.150;2022-10-16T00:36:31;16.10;39.00
774;DHT22;370;48.810;9.150;2022-10-16T00:38:58;16.20;39.30
774;DHT22;370;48.810;9.150;2022-10-16T00:41:26;16.10;38.40
774;DHT22;370;48.810;9.150;2022-10-16T00:43:54;16.00;40.50
774;DHT22;370;48.810;9.150;2022-10-16T00:46:24;16.00;41.10
774;DHT22;370;48.810;9.150;2022-10-16T00:48:54;15.90;42.20
774;DHT22;370;48.810;9.150;2022-10-16T00:51:35;15.80;43.50
774;DHT22;370;48.810;9.150;2022-10-16T00:54:08;15.80;44.30
774;DHT22;370;48.810;9.150;2022-10-16T00:56:35;15.70;45.10
774;DHT22;370;48.810;9.150;2022-10-16T00:59:06;15.70;45.70
774;DHT22;370;48.810;9.150;2022-10-16T01:01:36;15.70;45.70
774;DHT22;370;48.810;9.150;2022-10-16T01:04:03;15.80;45.80
774;DHT22;370;48.810;9.150;2022-10-16T01:06:35;15.80;45.80
774;DHT22;370;48.810;9.150;2022-10-16T01:09:12;15.90;45.00
774;DHT22;370;48.810;9.150;2022-10-16T01:11:45;16.00;43.60
774;DHT22;370;48.810;9.150;2022-10-16T01:14:21;15.90;43.50
774;DHT22;370;48.810;9.150;2022-10-16T01:16:52;15.90;43.90
774;DHT22;370;48.810;9.150;2022-10-16T01:19:26;16.00;44.90
774;DHT22;370;48.810;9.150;2022-10-16T01:21:57;16.10;43.10
774;DHT22;370;48.810;9.150;2022-10-16T01:24:33;16.10;41.40
774;DHT22;370;48.810;9.150;2022-10-16T01:27:10;16.10;40.50
774;DHT22;370;48.810;9.150;2022-10-16T01:29:42;16.10;41.00
774;DHT22;370;48.810;9.150;2022-10-16T01:32:15;16.20;40.40
774;DHT22;370;48.810;9.150;2022-10-16T01:34:49;16.20;39.00
774;DHT22;370;48.810;9.150;2022-10-16T01:37:25;16.10;39.20
774;DHT22;370;48.810;9.150;2022-10-16T01:39:58;16.10;40.30
774;DHT22;370;48.810;9.150;2022-10-16T01:42:31;16.10;41.10
774;DHT22;370;48.810;9.150;2022-10-16T01:45:01;16.20;40.20
774;DHT22;370;48.810;9.150;2022-10-16T01:47:30;16.30;39.00
774;DHT22;370;48.810;9.150;2022-10-16T01:49:58;16.30;39.00
774;DHT22;370;48.810;9.150;2022-10-16T01:52:27;16.30;38.00
774;DHT22;370;48.810;9.150;2022-10-16T01:54:56;16.40;38.20
774;DHT22;370;48.810;9.150;2022-10-16T01:57:24;16.40;38.20
774;DHT22;370;48.810;9.150;2022-10-16T01:59:58;16.40;37.70
774;DHT22;370;48.810;9.150;2022-10-16T02:02:29;16.50;37.00
774;DHT22;370;48.810;9.150;2022-10-16T02:04:59;16.40;37.60
774;DHT22;370;48.810;9.150;2022-10-16T02:07:29;16.40;38.00
774;DHT22;370;48.810;9.150;2022-10-16T02:09:55;16.20;39.50
774;DHT22;370;48.810;9.150;2022-10-16T02:12:26;16.30;39.80
774;DHT22;370;48.810;9.150;2022-10-16T02:14:55;16.30;38.60
774;DHT22;370;48.810;9.150;2022-10-16T02:17:23;16.40;37.60
774;DHT22;370;48.810;9.150;2022-10-16T02:19:52;16.40;38.00
774;DHT22;370;48.810;9.150;2022-10-16T02:22:24;16.50;36.90
774;DHT22;370;48.810;9.150;2022-10-16T02:24:56;16.50;36.90
774;DHT22;370;48.810;9.150;2022-10-16T02:27:29;16.50;36.20
774;DHT22;370;48.810;9.150;2022-10-16T02:30:04;16.60;36.30
774;DHT22;370;48.810;9.150;2022-10-16T02:32:35;16.50;34.80
774;DHT22;370;48.810;9.150;2022-10-16T02:35:04;16.50;34.90
774;DHT22;370;48.810;9.150;2022-10-16T02:37:32;16.50;35.70
774;DHT22;370;48.810;9.150;2022-10-16T02:39:59;16.50;35.10
774;DHT22;370;48.810;9.150;2022-10-16T02:42:29;16.50;36.20
774;DHT22;370;48.810;9.150;2022-10-16T02:44:56;16.50;35.20
774;DHT22;370;48.810;9.150;2022-10-16T02:47:24;16.50;35.80
774;DHT22;370;48.810;9.150;2022-10-16T02:49:51;16.60;36.30
774;DHT22;370;48.810;9.150;2022-10-16T02:52:18;16.60;36.30
774;DHT22;370;48.810;9.150;2022-10-16T02:54:44;16.50;36.20
774;DHT22;370;48.810;9.150;2022-10-16T02:57:11;16.50;36.20
774;DHT22;370;48.810;9.150;2022-10-16T02:59:38;16.50;36.20
774;DHT22;370;48.810;9.150;2022-10-16T03:02:05;16.50;36.20
774;DHT22;370;48.810;9.150;2022-10-16T03:04:33;16.50;36.20
774;DHT22;370;48.810;9.150;2022-10-16T03:07:00;16.30;38.20
774;DHT22;370;48.810;9.150;2022-10-16T03:09:26;16.20;39.90
774;DHT22;370;48.810;9.150;2022-10-16T03:11:53;16.10;41.00
774;DHT22;370;48.810;9.150;2022-10-16T03:14:20;16.00;42.30
774;DHT22;370;48.810;9.150;2022-10-16T03:16:47;16.00;42.60
774;DHT22;370;48.810;9.150;2022-10-16T03:19:15;16.00;42.40
774;DHT22;370;48.810;9.150;2022-10-16T03:21:43;16.00;42.80
774;DHT22;370;48.810;9.150;2022-10-16T03:24:10;16.10;41.50
774;DHT22;370;48.810;9.150;2022-10-16T03:26:37;16.10;41.50
774;DHT22;370;48.810;9.150;2022-10-16T03:29:04;16.10;41.50
774;DHT22;370;48.810;9.150;2022-10-16T03:31:31;16.10;41.70
774;DHT22;370;48.810;9.150;2022-10-16T03:33:58;16.10;41.00
774;DHT22;370;48.810;9.150;2022-10-16T03:36:25;16.00;42.30
774;DHT22;370;48.810;9.150;2022-10-16T03:38:53;16.00;42.50
774;DHT22;370;48.810;9.150;2022-10-16T03:41:20;16.10;42.40
774;DHT22;370;48.810;9.150;2022-10-16T03:43:47;16.10;42.50
774;DHT22;370;48.810;9.150;2022-10-16T03:46:14;16.00;42.30
774;DHT22;370;48.810;9.150;2022-10-16T03:48:41;15.90;44.10
774;DHT22;370;48.810;9.150;2022-10-16T03:51:07;15.80;45.80
774;DHT22;370;48.810;9.150;2022-10-16T03:53:34;15.90;45.90
774;DHT22;370;48.810;9.150;2022-10-16T03:56:02;15.90;45.20
774;DHT22;370;48.810;9.150;2022-10-16T03:58:29;15.90;44.60
774;DHT22;370;48.810;9.150;2022-10-16T04:00:56;15.90;44.50
774;DHT22;370;48.810;9.150;2022-10-16T04:03:23;15.80;44.20
774;DHT22;370;48.810;9.150;2022-10-16T04:05:50;15.80;45.80
774;DHT22;370;48.810;9.150;2022-10-16T04:08:17;15.70;45.70
774;DHT22;370;48.810;9.150;2022-10-16T04:10:43;15.70;45.70
774;DHT22;370;48.810;9.150;2022-10-16T04:13:12;15.70;47.00
774;DHT22;370;48.810;9.150;2022-10-16T04:15:39;15.70;45.70
774;DHT22;370;48.810;9.150;2022-10-16T04:18:06;15.70;47.00
774;DHT22;370;48.810;9.150;2022-10-16T04:20:33;15.80;46.60
774;DHT22;370;48.810;9.150;2022-10-16T04:23:00;15.70;47.30
774;DHT22;370;48.810;9.150;2022-10-16T04:25:27;15.70;46.90
774;DHT22;370;48.810;9.150;2022-10-16T04:27:54;15.60;46.60
774;DHT22;370;48.810;9.150;2022-10-16T04:30:23;15.50;48.80
774;DHT22;370;48.810;9.150;2022-10-16T04:32:51;15.50;49.60
774;DHT22;370;48.810;9.150;2022-10-16T04:35:20;15.60;50.60
774;DHT22;370;48.810;9.150;2022-10-16T04:37:47;15.60;49.90
774;DHT22;370;48.810;9.150;2022-10-16T04:40:14;15.50;50.70
774;DHT22;370;48.810;9.150;2022-10-16T04:42:41;15.60;50.50
774;DHT22;370;48.810;9.150;2022-10-16T04:45:09;15.70;50.60
774;DHT22;370;48.810;9.150;2022-10-16T04:47:37;15.70;49.30
774;DHT22;370;48.810;9.150;2022-10-16T04:50:04;15.70;48.70
774;DHT22;370;48.810;9.150;2022-10-16T04:52:31;15.70;48.80
774;DHT22;370;48.810;9.150;2022-10-16T04:54:58;15.80;48.60
774;DHT22;370;48.810;9.150;2022-10-16T04:57:27;15.80;47.90
774;DHT22;370;48.810;9.150;2022-10-16T04:59:55;15.80;47.00
774;DHT22;370;48.810;9.150;2022-10-16T05:02:22;15.70;47.30
774;DHT22;370;48.810;9.150;2022-10-16T05:04:50;15.60;48.10
774;DHT22;370;48.810;9.150;2022-10-16T05:07:17;15.70;50.10
774;DHT22;370;48.810;9.150;2022-10-16T05:09:44;15.70;48.60
774;DHT22;370;48.810;9.150;2022-10-16T05:12:10;15.80;47.50
774;DHT22;370;48.810;9.150;2022-10-16T05:14:37;15.80;46.20
774;DHT22;370;48.810;9.150;2022-10-16T05:17:04;15.90;46.30
774;DHT22;370;48.810;9.150;2022-10-16T05:19:31;15.60;47.80
774;DHT22;370;48.810;9.150;2022-10-16T05:21:59;15.50;50.70
774;DHT22;370;48.810;9.150;2022-10-16T05:24:26;15.40;51.20
774;DHT22;370;48.810;9.150;2022-10-16T05:26:53;15.40;52.90
774;DHT22;370;48.810;9.150;2022-10-16T05:29:20;15.40;52.20
774;DHT22;370;48.810;9.150;2022-10-16T05:31:50;15.30;52.20
774;DHT22;370;48.810;9.150;2022-10-16T05:34:17;15.30;53.60
774;DHT22;370;48.810;9.150;2022-10-16T05:36:44;15.30;52.60
774;DHT22;370;48.810;9.150;2022-10-16T05:39:14;15.30;51.30
774;DHT22;370;48.810;9.150;2022-10-16T05:41:41;15.30;52.30
774;DHT22;370;48.810;9.150;2022-10-16T05:44:08;15.40;51.00
774;DHT22;370;48.810;9.150;2022-10-16T05:46:35;15.40;50.50
774;DHT22;370;48.810;9.150;2022-10-16T05:49:02;15.40;50.00
774;DHT22;370;48.810;9.150;2022-10-16T05:51:29;15.40;50.50
774;DHT22;370;48.810;9.150;2022-10-16T05:53:56;15.50;50.10
774;DHT22;370;48.810;9.150;2022-10-16T05:56:24;15.50;49.50
774;DHT22;370;48.810;9.150;2022-10-16T05:58:51;15.50;50.20
774;DHT22;370;48.810;9.150;2022-10-16T06:01:18;15.60;49.70
774;DHT22;370;48.810;9.150;2022-10-16T06:03:46;15.70;49.40
774;DHT22;370;48.810;9.150;2022-10-16T06:06:14;15.70;48.70
774;DHT22;370;48.810;9.150;2022-10-16T06:08:42;15.90;47.80
774;DHT22;370;48.810;9.150;2022-10-16T06:11:12;15.90;47.60
774;DHT22;370;48.810;9.150;2022-10-16T06:13:40;15.80;47.20
774;DHT22;370;48.810;9.150;2022-10-16T06:16:08;15.80;45.80
774;DHT22;370;48.810;9.150;2022-10-16T06:18:35;15.80;45.80
774;DHT22;370;48.810;9.150;2022-10-16T06:21:08;15.70;45.70
774;DHT22;370;48.810;9.150;2022-10-16T06:23:35;15.70;45.70
774;DHT22;370;48.810;9.150;2022-10-16T06:26:06;15.80;46.00
774;DHT22;370;48.810;9.150;2022-10-16T06:28:33;15.80;45.90
774;DHT22;370;48.810;9.150;2022-10-16T06:31:03;15.80;46.00
774;DHT22;370;48.810;9.150;2022-10-16T06:33:30;15.80;46.20
774;DHT22;370;48.810;9.150;2022-10-16T06:36:00;15.90;47.80
774;DHT22;370;48.810;9.150;2022-10-16T06:38:27;16.00;48.40
774;DHT22;370;48.810;9.150;2022-10-16T06:40:54;16.20;46.20
774;DHT22;370;48.810;9.150;2022-10-16T06:43:21;16.30;45.40
774;DHT22;370;48.810;9.150;2022-10-16T06:45:51;16.50;44.20
774;DHT22;370;48.810;9.150;2022-10-16T06:48:19;16.60;42.80
774;DHT22;370;48.810;9.150;2022-10-16T06:50:56;16.70;42.70
774;DHT22;370;48.810;9.150;2022-10-16T06:53:23;16.90;41.00
774;DHT22;370;48.810;9.150;2022-10-16T06:55:50;17.00;38.20
774;DHT22;370;48.810;9.150;2022-10-16T06:58:17;17.00;37.50
774;DHT22;370;48.810;9.150;2022-10-16T07:00:44;17.10;36.70
774;DHT22;370;48.810;9.150;2022-10-16T07:03:11;17.20;35.60
774;DHT22;370;48.810;9.150;2022-10-16T07:05:39;17.10;36.70
774;DHT22;370;48.810;9.150;2022-10-16T07:08:07;17.30;35.60
774;DHT22;370;48.810;9.150;2022-10-16T07:10:34;17.50;34.40
774;DHT22;370;48.810;9.150;2022-10-16T07:13:01;17.60;33.70
774;DHT22;370;48.810;9.150;2022-10-16T07:15:28;17.80;30.60
774;DHT22;370;48.810;9.150;2022-10-16T07:17:55;18.00;29.10
774;DHT22;370;48.810;9.150;2022-10-16T07:20:21;18.10;28.90
774;DHT22;370;48.810;9.150;2022-10-16T07:22:50;17.90;25.60
774;DHT22;370;48.810;9.150;2022-10-16T07:25:16;17.40;27.30
774;DHT22;370;48.810;9.150;2022-10-16T07:27:43;17.10;31.60
774;DHT22;370;48.810;9.150;2022-10-16T07:30:10;17.10;32.50
774;DHT22;370;48.810;9.150;2022-10-16T07:32:37;17.10;30.20
774;DHT22;370;48.810;9.150;2022-10-16T07:35:05;17.00;31.50
774;DHT22;370;48.810;9.150;2022-10-16T07:37:32;17.20;31.30
774;DHT22;370;48.810;9.150;2022-10-16T07:40:00;17.10;31.90
774;DHT22;370;48.810;9.150;2022-10-16T07:42:27;17.10;31.70
774;DHT22;370;48.810;9.150;2022-10-16T07:44:54;17.10;32.80
774;DHT22;370;48.810;9.150;2022-10-16T07:47:21;17.20;32.40
774;DHT22;370;48.810;9.150;2022-10-16T07:49:48;17.20;32.60
774;DHT22;370;48.810;9.150;2022-10-16T07:52:15;17.50;33.50
774;DHT22;370;48.810;9.150;2022-10-16T07:54:41;17.70;29.20
774;DHT22;370;48.810;9.150;2022-10-16T07:57:10;17.70;27.90
774;DHT22;370;48.810;9.150;2022-10-16T07:59:37;17.90;28.80
774;DHT22;370;48.810;9.150;2022-10-16T08:02:03;18.20;27.80
774;DHT22;370;48.810;9.150;2022-10-16T08:04:30;18.50;26.70
774;DHT22;370;48.810;9.150;2022-10-16T08:06:57;18.60;26.10
774;DHT22;370;48.810;9.150;2022-10-16T08:09:24;18.80;25.10
774;DHT22;370;48.810;9.150;2022-10-16T08:11:51;19.10;22.90
774;DHT22;370;48.810;9.150;2022-10-16T08:14:19;19.30;21.40
774;DHT22;370;48.810;9.150;2022-10-16T08:16:46;19.70;20.40
774;DHT22;370;48.810;9.150;2022-10-16T08:19:13;20.10;17.70
774;DHT22;370;48.810;9.150;2022-10-16T08:21:41;20.50;16.50
774;DHT22;370;48.810;9.150;2022-10-16T08:24:07;20.90;14.30
774;DHT22;370;48.810;9.150;2022-10-16T08:26:34;21.50;11.70
774;DHT22;370;48.810;9.150;2022-10-16T08:29:01;22.30;8.60
774;DHT22;370;48.810;9.150;2022-10-16T08:31:29;22.80;4.60
774;DHT22;370;48.810;9.150;2022-10-16T08:33:56;23.00;4.40
774;DHT22;370;48.810;9.150;2022-10-16T08:36:23;23.10;2.80
774;DHT22;370;48.810;9.150;2022-10-16T08:38:50;23.20;1.90
774;DHT22;370;48.810;9.150;2022-10-16T08:41:56;23.20;1.00
774;DHT22;370;48.810;9.150;2022-10-16T08:44:40;23.20;1.20
774;DHT22;370;48.810;9.150;2022-10-16T08:47:17;23.10;1.00
774;DHT22;370;48.810;9.150;2022-10-16T08:49:55;23.00;1.00
774;DHT22;370;48.810;9.150;2022-10-16T08:52:28;22.50;1.00
774;DHT22;370;48.810;9.150;2022-10-16T08:54:56;22.50;1.20
774;DHT22;370;48.810;9.150;2022-10-16T08:57:25;22.50;1.80
774;DHT22;370;48.810;9.150;2022-10-16T08:59:52;22.00;1.00
774;DHT22;370;48.810;9.150;2022-10-16T09:02:31;21.60;3.00
774;DHT22;370;48.810;9.150;2022-10-16T09:05:17;21.40;1.90
774;DHT22;370;48.810;9.150;2022-10-16T09:07:54;21.30;3.60
774;DHT22;370;48.810;9.150;2022-10-16T09:10:34;21.30;3.60
774;DHT22;370;48.810;9.150;2022-10-16T09:13:12;21.20;3.00
774;DHT22;370;48.810;9.150;2022-10-16T09:15:47;21.30;3.10
774;DHT22;370;48.810;9.150;2022-10-16T09:18:23;21.30;3.30
774;DHT22;370;48.810;9.150;2022-10-16T09:20:55;21.50;2.00
774;DHT22;370;48.810;9.150;2022-10-16T09:23:27;22.00;2.30
774;DHT22;370;48.810;9.150;2022-10-16T09:25:55;22.30;1.00
774;DHT22;370;48.810;9.150;2022-10-16T09:28:23;22.80;1.00
774;DHT22;370;48.810;9.150;2022-10-16T09:30:51;23.30;1.00
774;DHT22;370;48.810;9.150;2022-10-16T09:33:21;23.60;1.00
774;DHT22;370;48.810;9.150;2022-10-16T09:35:50;23.70;1.00
774;DHT22;370;48.810;9.150;2022-10-16T09:38:26;23.70;1.00
774;DHT22;370;48.810;9.150;2022-10-16T09:40:54;23.30;1.00
774;DHT22;370;48.810;9.150;2022-10-16T09:43:23;23.30;1.00
774;DHT22;370;48.810;9.150;2022-10-16T09:45:57;23.40;1.00
774;DHT22;370;48.810;9.150;2022-10-16T09:48:31;23.40;1.00
774;DHT22;370;48.810;9.150;2022-10-16T09:51:01;23.60;1.00
774;DHT22;370;48.810;9.150;2022-10-16T09:53:40;24.10;1.00
774;DHT22;370;48.810;9.150;2022-10-16T09:56:10;24.70;1.00
774;DHT22;370;48.810;9.150;2022-10-16T09:58:42;26.10;1.00
774;DHT22;370;48.810;9.150;2022-10-16T10:01:13;27.10;1.00
774;DHT22;370;48.810;9.150;2022-10-16T10:03:42;27.60;1.00
774;DHT22;370;48.810;9.150;2022-10-16T10:06:23;27.70;1.00
774;DHT22;370;48.810;9.150;2022-10-16T10:09:06;28.00;1.00
774;DHT22;370;48.810;9.150;2022-10-16T10:11:37;28.40;1.00
774;DHT22;370;48.810;9.150;2022-10-16T10:14:05;28.60;1.00
774;DHT22;370;48.810;9.150;2022-10-16T10:16:32;28.90;1.00
774;DHT22;370;48.810;9.150;2022-10-16T10:19:01;29.10;1.00
774;DHT22;370;48.810;9.150;2022-10-16T10:21:27;29.20;1.00
774;DHT22;370;48.810;9.150;2022-10-16T10:23:57;29.40;1.00
774;DHT22;370;48.810;9.150;2022-10-16T10:26:27;29.60;1.00
774;DHT22;370;48.810;9.150;2022-10-16T10:29:00;29.80;1.00
774;DHT22;370;48.810;9.150;2022-10-16T10:31:34;29.60;1.00
774;DHT22;370;48.810;9.150;2022-10-16T10:34:26;29.80;1.00
774;DHT22;370;48.810;9.150;2022-10-16T10:37:02;30.50;1.00
774;DHT22;370;48.810;9.150;2022-10-16T10:39:34;31.00;1.00
774;DHT22;370;48.810;9.150;2022-10-16T10:42:12;30.60;1.00
774;DHT22;370;48.810;9.150;2022-10-16T10:44:58;31.00;1.00
774;DHT22;370;48.810;9.150;2022-10-16T10:47:39;31.40;1.00
774;DHT22;370;48.810;9.150;2022-10-16T10:50:16;31.80;1.00
774;DHT22;370;48.810;9.150;2022-10-16T10:52:57;32.30;1.00
774;DHT22;370;48.810;9.150;2022-10-16T10:55:33;32.50;1.00
774;DHT22;370;48.810;9.150;2022-10-16T11:01:06;34.20;1.00
774;DHT22;370;48.810;9.150;2022-10-16T11:03:57;34.40;1.00
774;DHT22;370;48.810;9.150;2022-10-16T11:06:31;34.10;1.00
774;DHT22;370;48.810;9.150;2022-10-16T11:09:01;33.80;1.00
774;DHT22;370;48.810;9.150;2022-10-16T11:11:35;34.00;1.00
774;DHT22;370;48.810;9.150;2022-10-16T11:14:10;34.20;1.00
774;DHT22;370;48.810;9.150;2022-10-16T11:16:44;34.20;1.00
774;DHT22;370;48.810;9.150;2022-10-16T11:19:25;34.80;1.00
774;DHT22;370;48.810;9.150;2022-10-16T11:22:01;36.60;1.00
774;DHT22;370;48.810;9.150;2022-10-16T11:24:37;38.90;1.00
774;DHT22;370;48.810;9.150;2022-10-16T11:27:12;40.90;1.00
774;DHT22;370;48.810;9.150;2022-10-16T11:29:46;41.90;1.00
774;DHT22;370;48.810;9.150;2022-10-16T11:32:22;40.70;1.00
774;DHT22;370;48.810;9.150;2022-10-16T11:34:55;40.50;1.00
774;DHT22;370;48.810;9.150;2022-10-16T11:37:27;40.00;1.00
774;DHT22;370;48.810;9.150;2022-10-16T11:40:00;39.80;1.00
774;DHT22;370;48.810;9.150;2022-10-16T11:42:33;39.80;1.00
774;DHT22;370;48.810;9.150;2022-10-16T11:45:12;41.00;1.00
774;DHT22;370;48.810;9.150;2022-10-16T11:47:45;42.90;1.00
774;DHT22;370;48.810;9.150;2022-10-16T11:50:20;44.20;1.00
774;DHT22;370;48.810;9.150;2022-10-16T11:52:55;44.60;1.00
774;DHT22;370;48.810;9.150;2022-10-16T11:55:28;45.10;1.00
774;DHT22;370;48.810;9.150;2022-10-16T11:58:00;45.70;1.00
774;DHT22;370;48.810;9.150;2022-10-16T12:00:31;46.60;1.00
774;DHT22;370;48.810;9.150;2022-10-16T12:03:08;45.00;1.00
774;DHT22;370;48.810;9.150;2022-10-16T12:05:52;44.40;1.00
774;DHT22;370;48.810;9.150;2022-10-16T12:08:23;45.80;1.00
774;DHT22;370;48.810;9.150;2022-10-16T12:10:50;45.90;1.00
774;DHT22;370;48.810;9.150;2022-10-16T12:13:32;45.10;1.00
774;DHT22;370;48.810;9.150;2022-10-16T12:16:22;43.70;1.00
774;DHT22;370;48.810;9.150;2022-10-16T12:18:50;42.20;1.00
774;DHT22;370;48.810;9.150;2022-10-16T12:21:30;40.20;1.00
774;DHT22;370;48.810;9.150;2022-10-16T12:24:00;38.20;1.00
774;DHT22;370;48.810;9.150;2022-10-16T12:26:31;36.60;1.00
774;DHT22;370;48.810;9.150;2022-10-16T12:29:13;35.70;1.00
774;DHT22;370;48.810;9.150;2022-10-16T12:31:45;34.80;1.00
774;DHT22;370;48.810;9.150;2022-10-16T12:34:22;34.40;1.00
774;DHT22;370;48.810;9.150;2022-10-16T12:36:50;34.80;1.00
774;DHT22;370;48.810;9.150;2022-10-16T12:39:22;34.60;1.00
774;DHT22;370;48.810;9.150;2022-10-16T12:42:01;34.20;1.00
774;DHT22;370;48.810;9.150;2022-10-16T12:44:32;33.80;1.00
774;DHT22;370;48.810;9.150;2022-10-16T12:46:59;33.40;1.00
774;DHT22;370;48.810;9.150;2022-10-16T12:49:34;32.90;1.00
774;DHT22;370;48.810;9.150;2022-10-16T12:52:02;32.20;1.00
774;DHT22;370;48.810;9.150;2022-10-16T12:54:31;31.50;1.00
774;DHT22;370;48.810;9.150;2022-10-16T12:57:14;30.90;1.00
774;DHT22;370;48.810;9.150;2022-10-16T12:59:51;30.40;1.00
774;DHT22;370;48.810;9.150;2022-10-16T13:02:48;30.00;1.00
774;DHT22;370;48.810;9.150;2022-10-16T13:05:26;29.70;1.00
774;DHT22;370;48.810;9.150;2022-10-16T13:08:09;29.40;1.00
774;DHT22;370;48.810;9.150;2022-10-16T13:10:52;29.20;1.00
774;DHT22;370;48.810;9.150;2022-10-16T13:13:36;29.10;1.00
774;DHT22;370;48.810;9.150;2022-10-16T13:16:15;29.10;1.00
774;DHT22;370;48.810;9.150;2022-10-16T13:18:55;29.20;1.00
774;DHT22;370;48.810;9.150;2022-10-16T13:21:33;29.20;1.00
774;DHT22;370;48.810;9.150;2022-10-16T13:24:13;29.40;1.00
774;DHT22;370;48.810;9.150;2022-10-16T13:26:48;29.10;1.00
774;DHT22;370;48.810;9.150;2022-10-16T13:29:15;29.20;1.00
774;DHT22;370;48.810;9.150;2022-10-16T13:31:43;29.30;1.00
774;DHT22;370;48.810;9.150;2022-10-16T13:34:15;29.20;1.00
774;DHT22;370;48.810;9.150;2022-10-16T13:36:46;28.70;1.00
774;DHT22;370;48.810;9.150;2022-10-16T13:39:20;28.40;1.00
774;DHT22;370;48.810;9.150;2022-10-16T13:41:58;28.20;1.00
774;DHT22;370;48.810;9.150;2022-10-16T13:44:27;28.20;1.00
774;DHT22;370;48.810;9.150;2022-10-16T13:46:58;27.70;1.00
774;DHT22;370;48.810;9.150;2022-10-16T13:49:26;27.60;1.00
774;DHT22;370;48.810;9.150;2022-10-16T13:51:57;27.70;1.00
774;DHT22;370;48.810;9.150;2022-10-16T13:54:25;27.40;1.00
774;DHT22;370;48.810;9.150;2022-10-16T13:56:53;27.60;1.00
774;DHT22;370;48.810;9.150;2022-10-16T13:59:25;27.60;1.00
774;DHT22;370;48.810;9.150;2022-10-16T14:01:53;27.40;1.00
774;DHT22;370;48.810;9.150;2022-10-16T14:04:21;27.40;1.00
774;DHT22;370;48.810;9.150;2022-10-16T14:06:50;27.40;1.00
774;DHT22;370;48.810;9.150;2022-10-16T14:09:25;27.30;1.00
774;DHT22;370;48.810;9.150;2022-10-16T14:11:57;27.20;1.00
774;DHT22;370;48.810;9.150;2022-10-16T14:14:25;26.80;1.00
774;DHT22;370;48.810;9.150;2022-10-16T14:16:53;26.40;1.00
774;DHT22;370;48.810;9.150;2022-10-16T14:19:22;26.50;1.00
774;DHT22;370;48.810;9.150;2022-10-16T14:21:50;26.30;1.00
774;DHT22;370;48.810;9.150;2022-10-16T14:24:30;26.40;1.00
774;DHT22;370;48.810;9.150;2022-10-16T14:27:00;26.40;1.00
774;DHT22;370;48.810;9.150;2022-10-16T14:29:29;26.40;1.00
774;DHT22;370;48.810;9.150;2022-10-16T14:31:58;26.10;1.00
774;DHT22;370;48.810;9.150;2022-10-16T14:34:27;26.10;1.00
774;DHT22;370;48.810;9.150;2022-10-16T14:36:54;25.80;1.00
774;DHT22;370;48.810;9.150;2022-10-16T14:39:22;25.80;1.00
774;DHT22;370;48.810;9.150;2022-10-16T14:41:51;25.50;1.00
774;DHT22;370;48.810;9.150;2022-10-16T14:44:23;25.50;1.00
774;DHT22;370;48.810;9.150;2022-10-16T14:46:53;25.50;1.00
774;DHT22;370;48.810;9.150;2022-10-16T14:49:21;25.60;1.00
774;DHT22;370;48.810;9.150;2022-10-16T14:51:48;25.70;1.00
774;DHT22;370;48.810;9.150;2022-10-16T14:54:16;25.80;1.00
774;DHT22;370;48.810;9.150;2022-10-16T14:56:47;25.90;1.00
774;DHT22;370;48.810;9.150;2022-10-16T14:59:17;25.90;1.00
774;DHT22;370;48.810;9.150;2022-10-16T15:01:46;25.80;1.00
774;DHT22;370;48.810;9.150;2022-10-16T15:04:13;25.70;1.00
774;DHT22;370;48.810;9.150;2022-10-16T15:06:41;25.70;1.00
774;DHT22;370;48.810;9.150;2022-10-16T15:09:08;25.60;1.00
774;DHT22;370;48.810;9.150;2022-10-16T15:14:57;25.50;1.00
774;DHT22;370;48.810;9.150;2022-10-16T15:17:25;25.40;1.00
774;DHT22;370;48.810;9.150;2022-10-16T15:19:51;25.30;1.00
774;DHT22;370;48.810;9.150;2022-10-16T15:22:18;25.30;1.00
774;DHT22;370;48.810;9.150;2022-10-16T15:24:45;25.20;1.00
774;DHT22;370;48.810;9.150;2022-10-16T15:27:12;24.80;1.00
774;DHT22;370;48.810;9.150;2022-10-16T15:29:39;24.70;1.00
774;DHT22;370;48.810;9.150;2022-10-16T15:32:06;24.60;1.00
774;DHT22;370;48.810;9.150;2022-10-16T15:34:34;24.40;1.00
774;DHT22;370;48.810;9.150;2022-10-16T15:37:02;24.30;1.00
774;DHT22;370;48.810;9.150;2022-10-16T15:39:29;24.10;1.00
774;DHT22;370;48.810;9.150;2022-10-16T15:41:56;24.00;1.00
774;DHT22;370;48.810;9.150;2022-10-16T15:44:23;23.90;1.00
774;DHT22;370;48.810;9.150;2022-10-16T15:46:55;23.80;1.00
774;DHT22;370;48.810;9.150;2022-10-16T15:49:21;23.70;1.00
774;DHT22;370;48.810;9.150;2022-10-16T15:51:50;23.60;1.00
774;DHT22;370;48.810;9.150;2022-10-16T15:54:18;23.50;1.00
774;DHT22;370;48.810;9.150;2022-10-16T15:56:47;23.50;1.00
774;DHT22;370;48.810;9.150;2022-10-16T15:59:14;23.30;1.00
774;DHT22;370;48.810;9.150;2022-10-16T16:01:41;23.20;1.00
774;DHT22;370;48.810;9.150;2022-10-16T16:04:08;23.10;1.00
774;DHT22;370;48.810;9.150;2022-10-16T16:06:35;22.90;1.00
774;DHT22;370;48.810;9.150;2022-10-16T16:09:06;22.80;1.00
774;DHT22;370;48.810;9.150;2022-10-16T16:11:32;22.80;1.00
774;DHT22;370;48.810;9.150;2022-10-16T16:14:03;22.60;1.00
774;DHT22;370;48.810;9.150;2022-10-16T16:16:29;22.30;1.00
774;DHT22;370;48.810;9.150;2022-10-16T16:18:57;22.10;3.30
774;DHT22;370;48.810;9.150;2022-10-16T16:21:24;21.90;4.30
774;DHT22;370;48.810;9.150;2022-10-16T16:23:50;21.80;6.20
774;DHT22;370;48.810;9.150;2022-10-16T16:26:24;21.60;8.00
774;DHT22;370;48.810;9.150;2022-10-16T16:28:53;21.30;8.60
774;DHT22;370;48.810;9.150;2022-10-16T16:31:24;21.20;9.80
774;DHT22;370;48.810;9.150;2022-10-16T16:33:51;21.00;12.50
774;DHT22;370;48.810;9.150;2022-10-16T16:36:18;20.80;12.40
774;DHT22;370;48.810;9.150;2022-10-16T16:38:45;20.60;13.90
774;DHT22;370;48.810;9.150;2022-10-16T16:41:13;20.50;15.10
774;DHT22;370;48.810;9.150;2022-10-16T16:43:41;20.20;18.50
774;DHT22;370;48.810;9.150;2022-10-16T16:46:08;19.90;20.50
774;DHT22;370;48.810;9.150;2022-10-16T16:48:35;19.70;21.50
774;DHT22;370;48.810;9.150;2022-10-16T16:51:03;19.70;22.60
774;DHT22;370;48.810;9.150;2022-10-16T16:53:30;19.60;22.50
774;DHT22;370;48.810;9.150;2022-10-16T16:56:01;19.50;22.80
774;DHT22;370;48.810;9.150;2022-10-16T16:58:27;19.50;23.40
774;DHT22;370;48.810;9.150;2022-10-16T17:00:56;19.40;23.50
774;DHT22;370;48.810;9.150;2022-10-16T17:03:26;19.30;23.90
774;DHT22;370;48.810;9.150;2022-10-16T17:05:56;19.30;25.00
774;DHT22;370;48.810;9.150;2022-10-16T17:08:23;19.30;25.10